sensor_id;sensor_type;location;lat;lon;timestamp;P1;durP1;ratioP1;P2;durP2;ratioP2
56171;SDS011;42052;41.634;-0.946;2023-12-29T00:00:07;10.05;;;6.72;;
56171;SDS011;42052;41.634;-0.946;2023-12-29T00:02:36;12.57;;;7.47;;
56171;SDS011;42052;41.634;-0.946;2023-12-29T00:05:02;10.25;;;6.82;;
56171;SDS011;42052;41.634;-0.946;2023-12-29T00:07:28;10.93;;;7.28;;
56171;SDS011;42052;41.634;-0.946;2023-12-29T00:09:57;10.13;;;7.10;;
56171;SDS011;42052;41.634;-0.946;2023-12-29T00:12:23;10.18;;;7.07;;
56171;SDS011;42052;41.634;-0.946;2023-12-29T00:14:49;10.30;;;7.22;;
56171;SDS011;42052;41.634;-0.946;2023-12-29T00:17:15;9.30;;;7.00;;
56171;SDS011;42052;41.634;-0.946;2023-12-29T00:19:41;11.90;;;7.38;;
56171;SDS011;42052;41.634;-0.946;2023-12-29T00:22:07;10.82;;;7.55;;
56171;SDS011;42052;41.634;-0.946;2023-12-29T00:24:33;10.20;;;6.80;;
56171;SDS011;42052;41.634;-0.946;2023-12-29T00:27:00;10.02;;;7.05;;
56171;SDS011;42052;41.634;-0.946;2023-12-29T00:29:27;10.60;;;7.60;;
56171;SDS011;42052;41.634;-0.946;2023-12-29T00:31:57;9.77;;;7.03;;
56171;SDS011;42052;41.634;-0.946;2023-12-29T00:34:25;11.65;;;7.68;;
56171;SDS011;42052;41.634;-0.946;2023-12-29T00:36:51;12.43;;;6.93;;
56171;SDS011;42052;41.634;-0.946;2023-12-29T00:39:17;9.90;;;7.25;;
56171;SDS011;42052;41.634;-0.946;2023-12-29T00:41:43;12.77;;;7.32;;
56171;SDS011;42052;41.634;-0.946;2023-12-29T00:44:08;10.88;;;7.15;;
56171;SDS011;42052;41.634;-0.946;2023-12-29T00:46:35;10.10;;;7.45;;
56171;SDS011;42052;41.634;-0.946;2023-12-29T00:49:01;11.00;;;7.50;;
56171;SDS011;42052;41.634;-0.946;2023-12-29T00:51:27;9.48;;;7.35;;
56171;SDS011;42052;41.634;-0.946;2023-12-29T00:53:53;10.15;;;7.55;;
56171;SDS011;42052;41.634;-0.946;2023-12-29T00:56:19;8.13;;;6.00;;
56171;SDS011;42052;41.634;-0.946;2023-12-29T00:58:46;6.57;;;4.50;;
56171;SDS011;42052;41.634;-0.946;2023-12-29T01:01:12;6.45;;;4.38;;
56171;SDS011;42052;41.634;-0.946;2023-12-29T01:03:38;4.82;;;3.70;;
56171;SDS011;42052;41.634;-0.946;2023-12-29T01:06:04;4.80;;;3.67;;
56171;SDS011;42052;41.634;-0.946;2023-12-29T01:08:30;7.78;;;5.90;;
56171;SDS011;42052;41.634;-0.946;2023-12-29T01:10:56;9.25;;;5.80;;
56171;SDS011;42052;41.634;-0.946;2023-12-29T01:13:22;8.63;;;5.90;;
56171;SDS011;42052;41.634;-0.946;2023-12-29T01:15:48;8.90;;;6.10;;
56171;SDS011;42052;41.634;-0.946;2023-12-29T01:18:14;8.43;;;6.00;;
56171;SDS011;42052;41.634;-0.946;2023-12-29T01:20:40;7.63;;;6.05;;
56171;SDS011;42052;41.634;-0.946;2023-12-29T01:23:06;10.65;;;6.53;;
56171;SDS011;42052;41.634;-0.946;2023-12-29T01:25:32;9.48;;;6.65;;
56171;SDS011;42052;41.634;-0.946;2023-12-29T01:27:58;12.18;;;7.00;;
56171;SDS011;42052;41.634;-0.946;2023-12-29T01:30:24;9.32;;;6.25;;
56171;SDS011;42052;41.634;-0.946;2023-12-29T01:32:51;11.65;;;6.30;;
56171;SDS011;42052;41.634;-0.946;2023-12-29T01:35:17;11.23;;;7.40;;
56171;SDS011;42052;41.634;-0.946;2023-12-29T01:37:43;9.23;;;6.55;;
56171;SDS011;42052;41.634;-0.946;2023-12-29T01:40:12;8.35;;;6.25;;
56171;SDS011;42052;41.634;-0.946;2023-12-29T01:42:38;9.07;;;6.80;;
56171;SDS011;42052;41.634;-0.946;2023-12-29T01:45:05;9.75;;;6.70;;
56171;SDS011;42052;41.634;-0.946;2023-12-29T01:47:41;9.70;;;6.20;;
56171;SDS011;42052;41.634;-0.946;2023-12-29T01:50:08;8.93;;;6.60;;
56171;SDS011;42052;41.634;-0.946;2023-12-29T01:52:33;9.40;;;6.28;;
56171;SDS011;42052;41.634;-0.946;2023-12-29T01:55:00;8.90;;;6.50;;
56171;SDS011;42052;41.634;-0.946;2023-12-29T01:57:26;7.53;;;6.10;;
56171;SDS011;42052;41.634;-0.946;2023-12-29T01:59:52;7.47;;;6.28;;
56171;SDS011;42052;41.634;-0.946;2023-12-29T02:02:22;9.95;;;6.43;;
56171;SDS011;42052;41.634;-0.946;2023-12-29T02:04:47;8.48;;;6.15;;
56171;SDS011;42052;41.634;-0.946;2023-12-29T02:07:13;7.68;;;6.18;;
56171;SDS011;42052;41.634;-0.946;2023-12-29T02:09:40;8.38;;;6.57;;
56171;SDS011;42052;41.634;-0.946;2023-12-29T02:12:06;8.57;;;6.40;;
56171;SDS011;42052;41.634;-0.946;2023-12-29T02:14:32;7.32;;;6.00;;
56171;SDS011;42052;41.634;-0.946;2023-12-29T02:17:05;7.90;;;6.43;;
56171;SDS011;42052;41.634;-0.946;2023-12-29T02:19:41;7.67;;;6.13;;
56171;SDS011;42052;41.634;-0.946;2023-12-29T02:22:13;7.80;;;6.25;;
56171;SDS011;42052;41.634;-0.946;2023-12-29T02:24:39;8.80;;;6.50;;
56171;SDS011;42052;41.634;-0.946;2023-12-29T02:27:12;7.50;;;6.15;;
56171;SDS011;42052;41.634;-0.946;2023-12-29T02:32:45;4.75;;;3.85;;
56171;SDS011;42052;41.634;-0.946;2023-12-29T02:35:21;4.45;;;3.33;;
56171;SDS011;42052;41.634;-0.946;2023-12-29T02:37:53;4.93;;;3.45;;
56171;SDS011;42052;41.634;-0.946;2023-12-29T02:40:20;5.55;;;4.25;;
56171;SDS011;42052;41.634;-0.946;2023-12-29T02:42:49;6.97;;;4.53;;
56171;SDS011;42052;41.634;-0.946;2023-12-29T02:45:15;6.20;;;4.40;;
56171;SDS011;42052;41.634;-0.946;2023-12-29T02:47:42;6.65;;;4.90;;
56171;SDS011;42052;41.634;-0.946;2023-12-29T02:50:09;6.45;;;5.03;;
56171;SDS011;42052;41.634;-0.946;2023-12-29T02:52:35;6.32;;;4.65;;
56171;SDS011;42052;41.634;-0.946;2023-12-29T02:55:01;6.68;;;5.25;;
56171;SDS011;42052;41.634;-0.946;2023-12-29T02:57:28;5.50;;;4.90;;
56171;SDS011;42052;41.634;-0.946;2023-12-29T02:59:56;6.57;;;5.25;;
56171;SDS011;42052;41.634;-0.946;2023-12-29T03:02:22;7.03;;;5.45;;
56171;SDS011;42052;41.634;-0.946;2023-12-29T03:04:48;6.57;;;5.05;;
56171;SDS011;42052;41.634;-0.946;2023-12-29T03:07:14;6.65;;;5.22;;
56171;SDS011;42052;41.634;-0.946;2023-12-29T03:09:40;8.43;;;6.03;;
56171;SDS011;42052;41.634;-0.946;2023-12-29T03:12:11;6.32;;;5.28;;
56171;SDS011;42052;41.634;-0.946;2023-12-29T03:14:37;7.85;;;5.32;;
56171;SDS011;42052;41.634;-0.946;2023-12-29T03:17:03;6.60;;;5.53;;
56171;SDS011;42052;41.634;-0.946;2023-12-29T03:19:29;8.85;;;5.63;;
56171;SDS011;42052;41.634;-0.946;2023-12-29T03:21:55;6.47;;;4.88;;
56171;SDS011;42052;41.634;-0.946;2023-12-29T03:24:21;7.55;;;5.88;;
56171;SDS011;42052;41.634;-0.946;2023-12-29T03:26:47;7.82;;;5.55;;
56171;SDS011;42052;41.634;-0.946;2023-12-29T03:29:13;6.75;;;5.47;;
56171;SDS011;42052;41.634;-0.946;2023-12-29T03:31:39;8.00;;;5.60;;
56171;SDS011;42052;41.634;-0.946;2023-12-29T03:34:05;7.13;;;5.55;;
56171;SDS011;42052;41.634;-0.946;2023-12-29T03:36:32;6.85;;;5.35;;
56171;SDS011;42052;41.634;-0.946;2023-12-29T03:38:58;7.07;;;5.70;;
56171;SDS011;42052;41.634;-0.946;2023-12-29T03:41:24;7.45;;;5.88;;
56171;SDS011;42052;41.634;-0.946;2023-12-29T03:43:49;7.10;;;5.40;;
56171;SDS011;42052;41.634;-0.946;2023-12-29T03:46:16;7.10;;;5.63;;
56171;SDS011;42052;41.634;-0.946;2023-12-29T03:48:47;6.53;;;5.70;;
56171;SDS011;42052;41.634;-0.946;2023-12-29T03:51:13;8.65;;;6.03;;
56171;SDS011;42052;41.634;-0.946;2023-12-29T03:53:40;7.38;;;5.47;;
56171;SDS011;42052;41.634;-0.946;2023-12-29T03:56:06;6.45;;;5.47;;
56171;SDS011;42052;41.634;-0.946;2023-12-29T03:58:33;7.15;;;5.78;;
56171;SDS011;42052;41.634;-0.946;2023-12-29T04:01:00;7.97;;;5.72;;
56171;SDS011;42052;41.634;-0.946;2023-12-29T04:03:26;6.68;;;5.60;;
56171;SDS011;42052;41.634;-0.946;2023-12-29T04:05:52;7.78;;;6.03;;
56171;SDS011;42052;41.634;-0.946;2023-12-29T04:08:18;7.25;;;5.55;;
56171;SDS011;42052;41.634;-0.946;2023-12-29T04:10:44;7.38;;;5.90;;
56171;SDS011;42052;41.634;-0.946;2023-12-29T04:13:09;8.00;;;5.82;;
56171;SDS011;42052;41.634;-0.946;2023-12-29T04:15:35;6.70;;;5.55;;
56171;SDS011;42052;41.634;-0.946;2023-12-29T04:18:01;7.47;;;5.90;;
56171;SDS011;42052;41.634;-0.946;2023-12-29T04:20:27;7.03;;;5.45;;
56171;SDS011;42052;41.634;-0.946;2023-12-29T04:22:54;7.38;;;6.25;;
56171;SDS011;42052;41.634;-0.946;2023-12-29T04:25:20;7.72;;;6.32;;
56171;SDS011;42052;41.634;-0.946;2023-12-29T04:27:48;8.48;;;6.32;;
56171;SDS011;42052;41.634;-0.946;2023-12-29T04:30:14;6.93;;;6.00;;
56171;SDS011;42052;41.634;-0.946;2023-12-29T04:32:40;8.63;;;6.32;;
56171;SDS011;42052;41.634;-0.946;2023-12-29T04:35:10;8.50;;;6.00;;
56171;SDS011;42052;41.634;-0.946;2023-12-29T04:37:38;7.32;;;6.10;;
56171;SDS011;42052;41.634;-0.946;2023-12-29T04:40:04;6.88;;;6.18;;
56171;SDS011;42052;41.634;-0.946;2023-12-29T04:42:30;8.05;;;6.13;;
56171;SDS011;42052;41.634;-0.946;2023-12-29T04:44:56;7.75;;;5.82;;
56171;SDS011;42052;41.634;-0.946;2023-12-29T04:47:22;7.45;;;6.00;;
56171;SDS011;42052;41.634;-0.946;2023-12-29T04:49:48;7.13;;;6.40;;
56171;SDS011;42052;41.634;-0.946;2023-12-29T04:52:14;8.13;;;6.78;;
56171;SDS011;42052;41.634;-0.946;2023-12-29T04:54:40;8.73;;;6.55;;
56171;SDS011;42052;41.634;-0.946;2023-12-29T04:57:05;7.80;;;6.50;;
56171;SDS011;42052;41.634;-0.946;2023-12-29T04:59:31;7.88;;;6.45;;
56171;SDS011;42052;41.634;-0.946;2023-12-29T05:01:57;8.40;;;6.35;;
56171;SDS011;42052;41.634;-0.946;2023-12-29T05:04:23;8.40;;;6.13;;
56171;SDS011;42052;41.634;-0.946;2023-12-29T05:06:48;7.20;;;5.85;;
56171;SDS011;42052;41.634;-0.946;2023-12-29T05:09:15;10.13;;;6.57;;
56171;SDS011;42052;41.634;-0.946;2023-12-29T05:11:41;7.93;;;6.20;;
56171;SDS011;42052;41.634;-0.946;2023-12-29T05:14:07;7.35;;;5.85;;
56171;SDS011;42052;41.634;-0.946;2023-12-29T05:16:33;8.90;;;5.95;;
56171;SDS011;42052;41.634;-0.946;2023-12-29T05:18:59;6.65;;;5.88;;
56171;SDS011;42052;41.634;-0.946;2023-12-29T05:21:25;7.78;;;6.00;;
56171;SDS011;42052;41.634;-0.946;2023-12-29T05:23:51;7.70;;;5.70;;
56171;SDS011;42052;41.634;-0.946;2023-12-29T05:26:17;7.55;;;5.90;;
56171;SDS011;42052;41.634;-0.946;2023-12-29T05:28:43;7.00;;;5.82;;
56171;SDS011;42052;41.634;-0.946;2023-12-29T05:31:09;8.30;;;6.28;;
56171;SDS011;42052;41.634;-0.946;2023-12-29T05:33:35;6.95;;;5.88;;
56171;SDS011;42052;41.634;-0.946;2023-12-29T05:36:08;5.63;;;4.05;;
56171;SDS011;42052;41.634;-0.946;2023-12-29T05:38:35;3.20;;;2.90;;
56171;SDS011;42052;41.634;-0.946;2023-12-29T05:41:02;4.07;;;2.97;;
56171;SDS011;42052;41.634;-0.946;2023-12-29T05:43:30;5.22;;;4.05;;
56171;SDS011;42052;41.634;-0.946;2023-12-29T05:45:56;5.35;;;4.40;;
56171;SDS011;42052;41.634;-0.946;2023-12-29T05:48:23;5.10;;;4.28;;
56171;SDS011;42052;41.634;-0.946;2023-12-29T05:50:50;6.70;;;4.50;;
56171;SDS011;42052;41.634;-0.946;2023-12-29T05:53:16;5.65;;;4.70;;
56171;SDS011;42052;41.634;-0.946;2023-12-29T05:55:43;5.32;;;4.65;;
56171;SDS011;42052;41.634;-0.946;2023-12-29T05:58:11;6.22;;;5.03;;
56171;SDS011;42052;41.634;-0.946;2023-12-29T06:00:37;5.53;;;4.82;;
56171;SDS011;42052;41.634;-0.946;2023-12-29T06:03:06;6.15;;;4.90;;
56171;SDS011;42052;41.634;-0.946;2023-12-29T06:05:32;6.43;;;5.13;;
56171;SDS011;42052;41.634;-0.946;2023-12-29T06:07:58;5.28;;;4.45;;
56171;SDS011;42052;41.634;-0.946;2023-12-29T06:10:24;6.50;;;4.82;;
56171;SDS011;42052;41.634;-0.946;2023-12-29T06:12:50;5.88;;;4.78;;
56171;SDS011;42052;41.634;-0.946;2023-12-29T06:15:15;6.45;;;5.28;;
56171;SDS011;42052;41.634;-0.946;2023-12-29T06:17:42;7.13;;;5.28;;
56171;SDS011;42052;41.634;-0.946;2023-12-29T06:20:08;6.38;;;5.38;;
56171;SDS011;42052;41.634;-0.946;2023-12-29T06:22:44;5.80;;;4.75;;
56171;SDS011;42052;41.634;-0.946;2023-12-29T06:25:10;5.57;;;4.82;;
56171;SDS011;42052;41.634;-0.946;2023-12-29T06:27:37;7.13;;;5.35;;
56171;SDS011;42052;41.634;-0.946;2023-12-29T06:30:04;6.80;;;5.40;;
56171;SDS011;42052;41.634;-0.946;2023-12-29T06:32:31;5.75;;;4.97;;
56171;SDS011;42052;41.634;-0.946;2023-12-29T06:34:57;6.53;;;5.10;;
56171;SDS011;42052;41.634;-0.946;2023-12-29T06:37:23;6.88;;;5.47;;
56171;SDS011;42052;41.634;-0.946;2023-12-29T06:39:49;6.35;;;5.40;;
56171;SDS011;42052;41.634;-0.946;2023-12-29T06:42:15;6.63;;;5.93;;
56171;SDS011;42052;41.634;-0.946;2023-12-29T06:44:41;6.97;;;5.65;;
56171;SDS011;42052;41.634;-0.946;2023-12-29T06:47:07;6.68;;;5.60;;
56171;SDS011;42052;41.634;-0.946;2023-12-29T06:49:35;7.53;;;5.47;;
56171;SDS011;42052;41.634;-0.946;2023-12-29T06:52:01;6.38;;;5.28;;
56171;SDS011;42052;41.634;-0.946;2023-12-29T06:54:27;7.18;;;5.60;;
56171;SDS011;42052;41.634;-0.946;2023-12-29T06:56:53;7.53;;;5.47;;
56171;SDS011;42052;41.634;-0.946;2023-12-29T06:59:19;7.22;;;5.72;;
56171;SDS011;42052;41.634;-0.946;2023-12-29T07:01:45;8.10;;;5.82;;
56171;SDS011;42052;41.634;-0.946;2023-12-29T07:04:11;9.98;;;5.70;;
56171;SDS011;42052;41.634;-0.946;2023-12-29T07:06:38;7.32;;;5.25;;
56171;SDS011;42052;41.634;-0.946;2023-12-29T07:09:04;8.18;;;5.75;;
56171;SDS011;42052;41.634;-0.946;2023-12-29T07:11:31;9.27;;;5.75;;
56171;SDS011;42052;41.634;-0.946;2023-12-29T07:13:57;7.85;;;5.30;;
56171;SDS011;42052;41.634;-0.946;2023-12-29T07:16:22;7.68;;;5.40;;
56171;SDS011;42052;41.634;-0.946;2023-12-29T07:18:48;8.55;;;5.63;;
56171;SDS011;42052;41.634;-0.946;2023-12-29T07:21:14;8.68;;;5.13;;
56171;SDS011;42052;41.634;-0.946;2023-12-29T07:23:41;7.28;;;5.55;;
56171;SDS011;42052;41.634;-0.946;2023-12-29T07:26:07;7.03;;;5.25;;
56171;SDS011;42052;41.634;-0.946;2023-12-29T07:28:33;8.25;;;5.88;;
56171;SDS011;42052;41.634;-0.946;2023-12-29T07:30:59;7.78;;;5.65;;
56171;SDS011;42052;41.634;-0.946;2023-12-29T07:33:25;7.93;;;5.82;;
56171;SDS011;42052;41.634;-0.946;2023-12-29T07:35:52;6.68;;;5.47;;
56171;SDS011;42052;41.634;-0.946;2023-12-29T07:38:18;8.52;;;5.80;;
56171;SDS011;42052;41.634;-0.946;2023-12-29T07:40:44;8.05;;;5.97;;
56171;SDS011;42052;41.634;-0.946;2023-12-29T07:43:12;8.35;;;5.95;;
56171;SDS011;42052;41.634;-0.946;2023-12-29T07:45:38;7.40;;;5.78;;
56171;SDS011;42052;41.634;-0.946;2023-12-29T07:48:04;7.50;;;6.10;;
56171;SDS011;42052;41.634;-0.946;2023-12-29T07:50:31;7.50;;;5.80;;
56171;SDS011;42052;41.634;-0.946;2023-12-29T07:52:56;7.57;;;6.18;;
56171;SDS011;42052;41.634;-0.946;2023-12-29T07:55:22;7.40;;;5.85;;
56171;SDS011;42052;41.634;-0.946;2023-12-29T07:57:48;8.50;;;6.38;;
56171;SDS011;42052;41.634;-0.946;2023-12-29T08:00:14;7.68;;;6.00;;
56171;SDS011;42052;41.634;-0.946;2023-12-29T08:02:40;10.30;;;6.28;;
56171;SDS011;42052;41.634;-0.946;2023-12-29T08:05:06;8.13;;;6.10;;
56171;SDS011;42052;41.634;-0.946;2023-12-29T08:07:35;9.25;;;6.55;;
56171;SDS011;42052;41.634;-0.946;2023-12-29T08:10:05;7.15;;;5.45;;
56171;SDS011;42052;41.634;-0.946;2023-12-29T08:12:32;9.75;;;6.13;;
56171;SDS011;42052;41.634;-0.946;2023-12-29T08:14:59;8.20;;;6.07;;
56171;SDS011;42052;41.634;-0.946;2023-12-29T08:17:25;8.73;;;6.50;;
56171;SDS011;42052;41.634;-0.946;2023-12-29T08:19:53;8.18;;;6.50;;
56171;SDS011;42052;41.634;-0.946;2023-12-29T08:22:22;7.55;;;6.30;;
56171;SDS011;42052;41.634;-0.946;2023-12-29T08:24:47;8.20;;;6.53;;
56171;SDS011;42052;41.634;-0.946;2023-12-29T08:27:13;7.68;;;6.25;;
56171;SDS011;42052;41.634;-0.946;2023-12-29T08:29:40;8.52;;;6.22;;
56171;SDS011;42052;41.634;-0.946;2023-12-29T08:32:07;9.07;;;6.30;;
56171;SDS011;42052;41.634;-0.946;2023-12-29T08:34:33;8.25;;;6.43;;
56171;SDS011;42052;41.634;-0.946;2023-12-29T08:37:03;7.22;;;6.43;;
56171;SDS011;42052;41.634;-0.946;2023-12-29T08:39:29;8.15;;;6.13;;
56171;SDS011;42052;41.634;-0.946;2023-12-29T08:41:55;8.18;;;6.38;;
56171;SDS011;42052;41.634;-0.946;2023-12-29T08:44:20;7.47;;;6.38;;
56171;SDS011;42052;41.634;-0.946;2023-12-29T08:46:46;7.15;;;6.43;;
56171;SDS011;42052;41.634;-0.946;2023-12-29T08:49:12;8.48;;;6.68;;
56171;SDS011;42052;41.634;-0.946;2023-12-29T08:51:38;8.35;;;6.43;;
56171;SDS011;42052;41.634;-0.946;2023-12-29T08:54:08;9.63;;;6.32;;
56171;SDS011;42052;41.634;-0.946;2023-12-29T08:56:34;8.45;;;6.22;;
56171;SDS011;42052;41.634;-0.946;2023-12-29T08:59:00;9.13;;;6.80;;
56171;SDS011;42052;41.634;-0.946;2023-12-29T09:01:26;7.65;;;6.28;;
56171;SDS011;42052;41.634;-0.946;2023-12-29T09:03:52;8.48;;;6.38;;
56171;SDS011;42052;41.634;-0.946;2023-12-29T09:06:18;9.65;;;6.65;;
56171;SDS011;42052;41.634;-0.946;2023-12-29T09:08:44;8.55;;;6.68;;
56171;SDS011;42052;41.634;-0.946;2023-12-29T09:11:10;8.75;;;6.22;;
56171;SDS011;42052;41.634;-0.946;2023-12-29T09:13:35;8.65;;;6.22;;
56171;SDS011;42052;41.634;-0.946;2023-12-29T09:16:01;8.85;;;6.85;;
56171;SDS011;42052;41.634;-0.946;2023-12-29T09:18:27;8.10;;;6.65;;
56171;SDS011;42052;41.634;-0.946;2023-12-29T09:20:53;8.43;;;6.30;;
56171;SDS011;42052;41.634;-0.946;2023-12-29T09:23:19;8.50;;;6.72;;
56171;SDS011;42052;41.634;-0.946;2023-12-29T09:25:45;7.68;;;6.40;;
56171;SDS011;42052;41.634;-0.946;2023-12-29T09:28:12;6.97;;;5.32;;
56171;SDS011;42052;41.634;-0.946;2023-12-29T09:30:38;6.63;;;4.15;;
56171;SDS011;42052;41.634;-0.946;2023-12-29T09:33:03;4.30;;;3.88;;
56171;SDS011;42052;41.634;-0.946;2023-12-29T09:35:30;4.25;;;3.20;;
56171;SDS011;42052;41.634;-0.946;2023-12-29T09:37:57;6.78;;;5.43;;
56171;SDS011;42052;41.634;-0.946;2023-12-29T09:40:24;7.57;;;5.18;;
56171;SDS011;42052;41.634;-0.946;2023-12-29T09:42:51;6.72;;;5.50;;
56171;SDS011;42052;41.634;-0.946;2023-12-29T09:45:19;6.28;;;5.07;;
56171;SDS011;42052;41.634;-0.946;2023-12-29T09:47:51;8.25;;;5.90;;
56171;SDS011;42052;41.634;-0.946;2023-12-29T09:50:20;7.53;;;5.63;;
56171;SDS011;42052;41.634;-0.946;2023-12-29T09:52:47;7.72;;;5.82;;
56171;SDS011;42052;41.634;-0.946;2023-12-29T09:55:17;6.78;;;5.60;;
56171;SDS011;42052;41.634;-0.946;2023-12-29T09:57:44;6.90;;;5.38;;
56171;SDS011;42052;41.634;-0.946;2023-12-29T10:00:15;7.07;;;5.72;;
56171;SDS011;42052;41.634;-0.946;2023-12-29T10:02:41;6.82;;;5.82;;
56171;SDS011;42052;41.634;-0.946;2023-12-29T10:05:07;7.95;;;5.72;;
56171;SDS011;42052;41.634;-0.946;2023-12-29T10:07:37;7.45;;;5.75;;
56171;SDS011;42052;41.634;-0.946;2023-12-29T10:10:04;9.20;;;6.28;;
56171;SDS011;42052;41.634;-0.946;2023-12-29T10:12:32;7.57;;;5.60;;
56171;SDS011;42052;41.634;-0.946;2023-12-29T10:15:15;7.90;;;5.97;;
56171;SDS011;42052;41.634;-0.946;2023-12-29T10:18:02;8.77;;;6.38;;
56171;SDS011;42052;41.634;-0.946;2023-12-29T10:23:12;7.82;;;6.10;;
56171;SDS011;42052;41.634;-0.946;2023-12-29T10:25:47;8.10;;;6.28;;
56171;SDS011;42052;41.634;-0.946;2023-12-29T10:28:14;7.57;;;6.18;;
56171;SDS011;42052;41.634;-0.946;2023-12-29T10:30:42;7.20;;;5.80;;
56171;SDS011;42052;41.634;-0.946;2023-12-29T10:33:08;7.78;;;6.22;;
56171;SDS011;42052;41.634;-0.946;2023-12-29T10:35:35;8.38;;;6.00;;
56171;SDS011;42052;41.634;-0.946;2023-12-29T10:38:12;8.02;;;6.07;;
56171;SDS011;42052;41.634;-0.946;2023-12-29T10:40:44;8.18;;;5.97;;
56171;SDS011;42052;41.634;-0.946;2023-12-29T10:43:10;8.25;;;6.22;;
56171;SDS011;42052;41.634;-0.946;2023-12-29T10:45:36;8.25;;;6.47;;
56171;SDS011;42052;41.634;-0.946;2023-12-29T10:48:02;8.15;;;6.57;;
56171;SDS011;42052;41.634;-0.946;2023-12-29T10:50:28;7.15;;;6.10;;
56171;SDS011;42052;41.634;-0.946;2023-12-29T10:53:13;7.32;;;6.10;;
56171;SDS011;42052;41.634;-0.946;2023-12-29T10:55:42;8.57;;;6.30;;
56171;SDS011;42052;41.634;-0.946;2023-12-29T10:58:09;8.60;;;6.63;;
56171;SDS011;42052;41.634;-0.946;2023-12-29T11:00:35;8.77;;;6.55;;
56171;SDS011;42052;41.634;-0.946;2023-12-29T11:03:01;8.98;;;6.20;;
56171;SDS011;42052;41.634;-0.946;2023-12-29T11:05:27;8.95;;;6.70;;
56171;SDS011;42052;41.634;-0.946;2023-12-29T11:07:54;10.10;;;6.80;;
56171;SDS011;42052;41.634;-0.946;2023-12-29T11:10:21;7.68;;;6.25;;
56171;SDS011;42052;41.634;-0.946;2023-12-29T11:12:47;8.77;;;6.57;;
56171;SDS011;42052;41.634;-0.946;2023-12-29T11:15:14;7.95;;;6.85;;
56171;SDS011;42052;41.634;-0.946;2023-12-29T11:17:41;8.50;;;6.45;;
56171;SDS011;42052;41.634;-0.946;2023-12-29T11:20:15;9.35;;;7.15;;
56171;SDS011;42052;41.634;-0.946;2023-12-29T11:22:42;6.03;;;4.90;;
56171;SDS011;42052;41.634;-0.946;2023-12-29T11:25:09;4.40;;;4.00;;
56171;SDS011;42052;41.634;-0.946;2023-12-29T11:27:38;4.18;;;3.53;;
56171;SDS011;42052;41.634;-0.946;2023-12-29T11:30:05;4.47;;;3.40;;
56171;SDS011;42052;41.634;-0.946;2023-12-29T11:38:24;5.60;;;4.88;;
56171;SDS011;42052;41.634;-0.946;2023-12-29T11:41:05;6.53;;;5.03;;
56171;SDS011;42052;41.634;-0.946;2023-12-29T11:43:57;6.10;;;5.38;;
56171;SDS011;42052;41.634;-0.946;2023-12-29T11:46:39;6.50;;;5.50;;
56171;SDS011;42052;41.634;-0.946;2023-12-29T11:49:11;7.63;;;5.40;;
56171;SDS011;42052;41.634;-0.946;2023-12-29T11:51:40;6.50;;;5.60;;
56171;SDS011;42052;41.634;-0.946;2023-12-29T11:54:08;8.15;;;6.13;;
56171;SDS011;42052;41.634;-0.946;2023-12-29T11:56:38;8.18;;;6.05;;
56171;SDS011;42052;41.634;-0.946;2023-12-29T11:59:13;7.63;;;5.93;;
56171;SDS011;42052;41.634;-0.946;2023-12-29T12:01:58;7.65;;;5.88;;
56171;SDS011;42052;41.634;-0.946;2023-12-29T12:04:38;7.40;;;6.00;;
56171;SDS011;42052;41.634;-0.946;2023-12-29T12:07:16;7.85;;;6.07;;
56171;SDS011;42052;41.634;-0.946;2023-12-29T12:12:53;8.25;;;6.57;;
56171;SDS011;42052;41.634;-0.946;2023-12-29T12:20:20;8.75;;;6.47;;
56171;SDS011;42052;41.634;-0.946;2023-12-29T12:22:48;9.63;;;6.70;;
56171;SDS011;42052;41.634;-0.946;2023-12-29T12:25:21;8.48;;;7.10;;
56171;SDS011;42052;41.634;-0.946;2023-12-29T12:27:47;9.18;;;7.35;;
56171;SDS011;42052;41.634;-0.946;2023-12-29T12:30:13;10.88;;;7.63;;
56171;SDS011;42052;41.634;-0.946;2023-12-29T12:32:44;9.35;;;7.65;;
56171;SDS011;42052;41.634;-0.946;2023-12-29T12:35:13;8.60;;;7.45;;
56171;SDS011;42052;41.634;-0.946;2023-12-29T12:37:42;9.23;;;7.35;;
56171;SDS011;42052;41.634;-0.946;2023-12-29T12:40:09;7.82;;;5.88;;
56171;SDS011;42052;41.634;-0.946;2023-12-29T12:42:38;6.25;;;4.68;;
56171;SDS011;42052;41.634;-0.946;2023-12-29T12:45:11;5.50;;;4.20;;
56171;SDS011;42052;41.634;-0.946;2023-12-29T12:47:50;4.35;;;3.85;;
56171;SDS011;42052;41.634;-0.946;2023-12-29T12:50:20;8.45;;;6.65;;
56171;SDS011;42052;41.634;-0.946;2023-12-29T12:52:46;7.10;;;5.93;;
56171;SDS011;42052;41.634;-0.946;2023-12-29T12:55:12;9.10;;;6.15;;
56171;SDS011;42052;41.634;-0.946;2023-12-29T12:57:41;7.90;;;6.70;;
56171;SDS011;42052;41.634;-0.946;2023-12-29T13:00:07;7.93;;;6.20;;
56171;SDS011;42052;41.634;-0.946;2023-12-29T13:02:34;8.88;;;7.00;;
56171;SDS011;42052;41.634;-0.946;2023-12-29T13:05:01;8.75;;;6.68;;
56171;SDS011;42052;41.634;-0.946;2023-12-29T13:07:30;9.60;;;7.10;;
56171;SDS011;42052;41.634;-0.946;2023-12-29T13:09:56;6.78;;;5.97;;
56171;SDS011;42052;41.634;-0.946;2023-12-29T13:12:23;5.78;;;4.78;;
56171;SDS011;42052;41.634;-0.946;2023-12-29T13:14:49;4.63;;;3.88;;
56171;SDS011;42052;41.634;-0.946;2023-12-29T13:17:17;4.65;;;3.72;;
56171;SDS011;42052;41.634;-0.946;2023-12-29T13:22:23;5.03;;;3.53;;
56171;SDS011;42052;41.634;-0.946;2023-12-29T13:24:51;4.78;;;3.47;;
56171;SDS011;42052;41.634;-0.946;2023-12-29T13:27:17;4.75;;;3.88;;
56171;SDS011;42052;41.634;-0.946;2023-12-29T13:29:44;7.03;;;5.40;;
56171;SDS011;42052;41.634;-0.946;2023-12-29T13:32:23;6.05;;;5.03;;
56171;SDS011;42052;41.634;-0.946;2023-12-29T13:37:47;7.22;;;5.30;;
56171;SDS011;42052;41.634;-0.946;2023-12-29T13:40:28;7.03;;;5.60;;
56171;SDS011;42052;41.634;-0.946;2023-12-29T13:43:08;7.00;;;5.75;;
56171;SDS011;42052;41.634;-0.946;2023-12-29T13:45:36;6.53;;;5.30;;
56171;SDS011;42052;41.634;-0.946;2023-12-29T13:48:05;8.93;;;6.13;;
56171;SDS011;42052;41.634;-0.946;2023-12-29T13:50:32;8.75;;;6.28;;
56171;SDS011;42052;41.634;-0.946;2023-12-29T13:52:59;8.05;;;6.07;;
56171;SDS011;42052;41.634;-0.946;2023-12-29T13:55:25;9.00;;;6.15;;
56171;SDS011;42052;41.634;-0.946;2023-12-29T13:57:51;7.85;;;6.07;;
56171;SDS011;42052;41.634;-0.946;2023-12-29T14:00:18;8.88;;;6.70;;
56171;SDS011;42052;41.634;-0.946;2023-12-29T14:02:48;8.43;;;6.70;;
56171;SDS011;42052;41.634;-0.946;2023-12-29T14:05:28;8.30;;;6.47;;
56171;SDS011;42052;41.634;-0.946;2023-12-29T14:10:36;7.85;;;6.43;;
56171;SDS011;42052;41.634;-0.946;2023-12-29T14:15:39;7.65;;;6.25;;
56171;SDS011;42052;41.634;-0.946;2023-12-29T14:18:13;8.85;;;6.57;;
56171;SDS011;42052;41.634;-0.946;2023-12-29T14:20:53;12.77;;;7.00;;
56171;SDS011;42052;41.634;-0.946;2023-12-29T14:23:19;7.00;;;6.22;;
56171;SDS011;42052;41.634;-0.946;2023-12-29T14:25:45;9.75;;;6.45;;
56171;SDS011;42052;41.634;-0.946;2023-12-29T14:28:15;8.25;;;6.28;;
56171;SDS011;42052;41.634;-0.946;2023-12-29T14:30:48;7.53;;;6.25;;
56171;SDS011;42052;41.634;-0.946;2023-12-29T14:33:15;8.57;;;6.28;;
56171;SDS011;42052;41.634;-0.946;2023-12-29T14:35:41;9.00;;;6.28;;
56171;SDS011;42052;41.634;-0.946;2023-12-29T14:38:07;10.32;;;6.90;;
56171;SDS011;42052;41.634;-0.946;2023-12-29T14:40:33;8.40;;;6.32;;
56171;SDS011;42052;41.634;-0.946;2023-12-29T14:43:00;8.48;;;6.32;;
56171;SDS011;42052;41.634;-0.946;2023-12-29T14:45:26;6.63;;;5.50;;
56171;SDS011;42052;41.634;-0.946;2023-12-29T14:47:55;8.73;;;6.50;;
56171;SDS011;42052;41.634;-0.946;2023-12-29T14:50:25;9.45;;;6.40;;
56171;SDS011;42052;41.634;-0.946;2023-12-29T14:52:52;7.90;;;6.53;;
56171;SDS011;42052;41.634;-0.946;2023-12-29T14:55:18;9.43;;;7.00;;
56171;SDS011;42052;41.634;-0.946;2023-12-29T14:57:45;9.30;;;6.80;;
56171;SDS011;42052;41.634;-0.946;2023-12-29T15:00:11;8.20;;;6.60;;
56171;SDS011;42052;41.634;-0.946;2023-12-29T15:02:38;8.23;;;6.40;;
56171;SDS011;42052;41.634;-0.946;2023-12-29T15:05:03;8.18;;;6.85;;